To NAV CANADA Home Page Login to a new session Search on AWWS site Feedback and Comments Disclaimer Vers la page française équivalente Tips FAQ What's new on the site To the Forecasts and Observations / NOTAM section To "File a Flight Plan" website Publications and other links Update of the User's profile FIC Telephone Numbers My Weather Data Folder Route Weather Data Regional Weather Data Local Weather Data To the Forecasts and Observations / NOTAM section
Request Generated 08/27/2016 at 16:48:37 UTC . Weather information available at that time is displayed.

METAR/TAF

BAKER LAKE/NU    

METAR CYBK 271600Z 32008KT 20SM BKN021 07/02 A2984 RMK SC7 SLP107=
METAR CYBK 271500Z 29007KT 20SM BKN015 BKN035 06/03 A2983 RMK SC5SC2
SLP105=
SPECI CYBK 271438Z CCA 31006KT 20SM SCT015 BKN035 06/03 A2983 RMK
SC4SC2 SLP104=
SPECI CYBK 271438Z 31006KT 20SM FEW006 BKN015 BKN035 06/03 A2983 RMK
SC1SC4SC1 SLP104=
METAR CYBK 271400Z 29004KT 20SM SCT006 BKN015 05/03 A2983 RMK SC4SC1
SLP104=

TAF AMD CYBK 271445Z 2714/2724 30005KT P6SM BKN050 TEMPO 2714/2724
BKN020
RMK NXT FCST BY 271800Z=
Your time UTC time
Weather data provided by Environment Canada and NAV CANADA